Time;durP1;ratioP1;P1;durP2;ratioP2;P2;SDS_P1;SDS_P2;PMS_P1;PMS_P2;Temp;Humidity;BMP_temperature;BMP_pressure;BME280_temperature;BME280_humidity;BME280_pressure;Samples;Min_cycle;Max_cycle;Signal;HPM_P1;HPM_P2
2021/11/28 00:01:53;;;;;;;7.38;6.13;;;;;;;16.37;59.90;99573.56;4935285;29;20036;-75
2021/11/28 00:04:19;;;;;;;9.80;6.38;;;;;;;16.36;60.25;99574.47;4888661;29;20035;-75
2021/11/28 00:06:59;;;;;;;9.00;6.35;;;;;;;16.35;60.12;99576.22;4904037;29;20032;-75
2021/11/28 00:15:00;;;;;;;6.50;5.80;;;;;;;16.37;60.07;99595.19;4892621;29;20079;-76
2021/11/28 00:17:25;;;;;;;8.48;6.00;;;;;;;16.37;60.06;99597.78;4919970;29;20032;-76
2021/11/28 00:19:51;;;;;;;8.27;6.75;;;;;;;16.37;60.18;99604.72;4887797;29;20042;-76
2021/11/28 00:22:16;;;;;;;7.80;5.75;;;;;;;16.38;59.78;99603.84;4919337;29;20115;-76
2021/11/28 00:24:42;;;;;;;7.68;6.20;;;;;;;16.36;60.38;99605.63;4887990;29;20482;-76
2021/11/28 00:27:07;;;;;;;7.28;6.50;;;;;;;16.36;59.77;99603.03;4934848;29;20032;-76
2021/11/28 00:29:34;;;;;;;8.27;5.95;;;;;;;16.36;59.66;99606.47;4903374;29;20042;-76
2021/11/28 00:32:00;;;;;;;7.57;6.07;;;;;;;16.37;59.87;99608.16;4919336;29;20031;-76
2021/11/28 00:34:26;;;;;;;7.07;6.38;;;;;;;16.37;59.67;99602.97;4903626;29;20030;-75
2021/11/28 00:36:51;;;;;;;9.07;6.32;;;;;;;16.36;59.65;99596.09;4934704;29;20228;-75
2021/11/28 00:39:17;;;;;;;9.55;6.18;;;;;;;16.37;59.48;99605.56;4935993;29;20028;-75
2021/11/28 00:41:43;;;;;;;8.85;5.88;;;;;;;16.36;59.72;99600.44;4936077;29;20036;-77
2021/11/28 00:44:08;;;;;;;6.78;6.07;;;;;;;16.36;59.63;99600.44;4918961;29;20059;-76
2021/11/28 00:46:33;;;;;;;6.93;6.20;;;;;;;16.36;59.56;99600.44;4918985;29;20110;-78
2021/11/28 00:49:04;;;;;;;6.95;6.25;;;;;;;16.36;59.34;99600.44;4903259;29;20039;-76
2021/11/28 00:51:50;;;;;;;7.22;6.07;;;;;;;16.37;59.39;99594.34;4918798;29;20047;-75
2021/11/28 00:54:16;;;;;;;6.88;6.18;;;;;;;16.36;59.22;99596.09;4921808;29;20035;-75
2021/11/28 00:56:43;;;;;;;7.28;6.43;;;;;;;16.36;59.74;99603.88;4903084;29;20209;-74
2021/11/28 00:59:08;;;;;;;7.50;6.35;;;;;;;16.37;59.29;99612.50;4903218;29;20390;-75
2021/11/28 01:01:34;;;;;;;7.00;6.30;;;;;;;16.36;59.50;99614.25;4919026;29;20024;-76
2021/11/28 01:04:00;;;;;;;9.25;6.50;;;;;;;16.36;58.93;99621.19;4903076;29;20035;-76
2021/11/28 01:06:26;;;;;;;8.13;6.22;;;;;;;16.37;59.06;99622.88;4934424;29;20036;-75
2021/11/28 01:08:51;;;;;;;7.07;6.38;;;;;;;16.36;58.97;99624.63;4918768;29;20111;-76
2021/11/28 01:11:16;;;;;;;6.78;6.00;;;;;;;16.37;58.90;99633.28;4887283;29;20075;-76
2021/11/28 01:13:42;;;;;;;7.13;6.43;;;;;;;16.36;59.09;99635.03;4903030;29;20039;-77
2021/11/28 01:16:08;;;;;;;7.15;6.45;;;;;;;16.36;58.94;99642.81;4902870;29;20031;-76
2021/11/28 01:18:33;;;;;;;7.57;6.30;;;;;;;16.37;59.17;99651.44;4935794;29;20031;-76
2021/11/28 01:21:00;;;;;;;6.90;6.20;;;;;;;16.37;58.98;99656.66;4918814;29;20028;-76
2021/11/28 01:23:26;;;;;;;7.45;6.13;;;;;;;16.36;59.11;99657.53;4905313;29;20038;-76
2021/11/28 01:25:51;;;;;;;7.50;6.47;;;;;;;16.36;58.88;99658.41;4893700;29;20103;-76
2021/11/28 01:28:16;;;;;;;7.13;5.93;;;;;;;16.36;58.69;99665.34;4943696;29;20035;-76
2021/11/28 01:30:42;;;;;;;7.18;6.32;;;;;;;16.36;58.79;99668.78;4943644;29;20031;-75
2021/11/28 01:33:07;;;;;;;6.50;5.90;;;;;;;16.36;58.87;99662.75;4941382;29;20031;-76
2021/11/28 01:35:35;;;;;;;7.20;6.50;;;;;;;16.36;58.77;99671.38;4908985;29;20051;-76
2021/11/28 01:38:01;;;;;;;7.03;6.13;;;;;;;16.35;58.83;99674.00;4925733;29;20031;-76
2021/11/28 01:40:26;;;;;;;7.30;6.35;;;;;;;16.35;58.82;99679.19;4924653;29;20466;-76
2021/11/28 01:42:58;;;;;;;7.45;6.20;;;;;;;16.36;58.27;99693.91;4907506;29;20063;-76
2021/11/28 01:45:30;;;;;;;6.65;5.90;;;;;;;16.36;58.51;99686.94;4939322;29;20462;-75
2021/11/28 01:47:58;;;;;;;6.63;5.93;;;;;;;16.35;58.36;99693.06;4922126;29;20028;-75
2021/11/28 01:50:26;;;;;;;8.73;6.50;;;;;;;16.35;58.32;99685.25;4938958;29;20028;-75
2021/11/28 01:52:51;;;;;;;5.80;5.30;;;;;;;16.37;58.49;99695.59;4906054;29;20467;-77
2021/11/28 01:55:22;;;;;;;6.95;6.25;;;;;;;16.36;58.12;99699.94;4906070;29;20066;-75
2021/11/28 01:57:48;;;;;;;6.47;5.85;;;;;;;16.36;58.04;99699.94;4939553;29;20023;-76
2021/11/28 02:00:17;;;;;;;6.88;6.18;;;;;;;16.36;58.01;99699.94;4905788;29;20031;-77
2021/11/28 02:02:43;;;;;;;6.65;5.95;;;;;;;16.36;58.16;99707.72;4921437;29;20019;-75
2021/11/28 02:05:09;;;;;;;6.45;5.82;;;;;;;16.35;58.13;99698.25;4905686;29;20094;-75
2021/11/28 02:07:35;;;;;;;6.32;5.72;;;;;;;16.36;57.96;99705.13;4938370;29;20470;-75
2021/11/28 02:10:02;;;;;;;6.55;5.95;;;;;;;16.38;57.85;99702.50;4937198;29;20027;-74
2021/11/28 02:12:29;;;;;;;6.68;5.95;;;;;;;16.36;57.87;99697.34;4905635;29;20104;-74
2021/11/28 02:14:56;;;;;;;6.32;5.72;;;;;;;16.36;57.73;99694.75;4921847;29;20048;-75
2021/11/28 02:17:22;;;;;;;7.03;6.28;;;;;;;16.37;57.83;99698.19;4921344;29;20036;-76
2021/11/28 02:19:48;;;;;;;6.88;6.18;;;;;;;16.37;57.69;99700.78;4890201;29;20031;-76
2021/11/28 02:22:13;;;;;;;6.55;5.95;;;;;;;16.36;57.65;99697.34;4921220;29;20110;-75
2021/11/28 02:24:39;;;;;;;6.38;5.78;;;;;;;16.37;57.61;99698.19;4905405;29;20489;-75
2021/11/28 02:27:04;;;;;;;5.78;5.28;;;;;;;16.37;57.54;99698.19;4889788;29;20042;-76
2021/11/28 02:29:30;;;;;;;6.32;5.72;;;;;;;16.37;57.78;99704.22;4889783;29;20463;-75
2021/11/28 02:31:56;;;;;;;6.75;6.13;;;;;;;16.36;57.33;99701.69;4889620;29;20024;-75
2021/11/28 02:34:21;;;;;;;6.28;5.68;;;;;;;16.36;57.47;99701.69;4904314;29;20130;-74
2021/11/28 02:36:53;;;;;;;6.53;5.93;;;;;;;16.37;57.59;99703.38;4920737;29;20051;-76
2021/11/28 02:39:21;;;;;;;6.85;6.15;;;;;;;16.36;57.38;99701.69;4905256;29;20491;-74
2021/11/28 02:41:48;;;;;;;6.38;5.78;;;;;;;16.36;57.36;99701.69;4889375;29;20035;-76
2021/11/28 02:44:16;;;;;;;6.80;5.90;;;;;;;16.36;57.64;99709.47;4920797;29;20034;-77
2021/11/28 02:46:44;;;;;;;6.70;6.00;;;;;;;16.35;57.60;99715.53;4905372;29;20031;-75
2021/11/28 02:49:10;;;;;;;7.07;6.20;;;;;;;16.36;57.35;99707.72;4920520;29;20462;-75
2021/11/28 02:51:37;;;;;;;6.50;5.90;;;;;;;16.34;57.38;99717.28;4920437;29;20028;-75
2021/11/28 02:54:05;;;;;;;6.55;5.95;;;;;;;16.33;57.51;99713.00;4936277;29;20028;-76
2021/11/28 02:56:32;;;;;;;7.10;5.18;;;;;;;16.34;57.24;99717.28;4920558;29;20019;-77
2021/11/28 02:58:57;;;;;;;6.50;5.90;;;;;;;16.34;57.37;99721.63;4920296;29;20565;-77
2021/11/28 03:01:23;;;;;;;6.85;5.88;;;;;;;16.34;57.16;99713.84;4920237;29;20123;-78
2021/11/28 03:03:49;;;;;;;6.75;6.05;;;;;;;16.35;57.04;99718.13;4904621;29;20027;-79
2021/11/28 03:06:15;;;;;;;6.47;5.88;;;;;;;16.33;57.27;99713.00;4904703;29;20383;-78
2021/11/28 03:08:41;;;;;;;6.25;5.65;;;;;;;16.33;57.23;99725.09;4904575;29;20082;-79
2021/11/28 03:11:09;;;;;;;6.00;5.47;;;;;;;16.34;56.94;99732.03;4936027;29;20040;-79
2021/11/28 03:13:38;;;;;;;7.63;5.45;;;;;;;16.35;57.39;99732.00;4904987;29;20059;-80
2021/11/28 03:16:08;;;;;;;6.93;6.07;;;;;;;16.34;57.07;99735.47;4935776;29;20028;-78
2021/11/28 03:18:34;;;;;;;5.97;5.38;;;;;;;16.33;56.75;99738.97;4920098;29;20032;-78
2021/11/28 03:21:11;;;;;;;6.28;5.68;;;;;;;16.33;57.00;99735.47;4904374;29;20034;-77
2021/11/28 03:23:38;;;;;;;6.40;5.78;;;;;;;16.33;56.92;99733.78;4920177;29;20027;-78
2021/11/28 03:26:14;;;;;;;6.82;6.20;;;;;;;16.32;56.70;99734.63;4937054;29;20031;-78
2021/11/28 03:28:43;;;;;;;7.00;6.30;;;;;;;16.34;57.00;99742.41;4919912;29;20423;-79
2021/11/28 03:31:08;;;;;;;6.18;5.57;;;;;;;16.32;56.86;99739.84;4919939;29;20030;-78
2021/11/28 03:33:36;;;;;;;6.57;5.82;;;;;;;16.33;56.65;99740.69;4888602;29;20047;-78
2021/11/28 03:36:01;;;;;;;6.50;5.85;;;;;;;16.32;56.45;99739.84;4903981;29;20048;-78
2021/11/28 03:38:27;;;;;;;6.38;5.78;;;;;;;16.32;56.77;99733.78;4935481;29;20498;-77
2021/11/28 03:40:53;;;;;;;6.40;5.80;;;;;;;16.32;56.64;99738.97;4919357;29;20091;-77
2021/11/28 03:43:18;;;;;;;6.82;6.10;;;;;;;16.31;56.52;99729.47;4904014;29;20066;-78
2021/11/28 03:45:44;;;;;;;6.18;5.50;;;;;;;16.31;56.64;99730.34;4919177;29;20141;-77
2021/11/28 03:48:09;;;;;;;6.10;5.50;;;;;;;16.31;56.63;99727.75;4888202;29;20471;-79
2021/11/28 03:50:35;;;;;;;6.22;5.65;;;;;;;16.30;56.61;99726.03;4903967;29;20059;-78
2021/11/28 03:53:00;;;;;;;5.85;5.35;;;;;;;16.31;56.29;99724.28;4919646;29;20028;-78
2021/11/28 03:55:26;;;;;;;6.07;5.47;;;;;;;16.30;56.49;99718.25;4903745;29;20032;-79
2021/11/28 03:57:52;;;;;;;6.45;5.72;;;;;;;16.30;56.41;99722.59;4935347;29;20034;-78
2021/11/28 04:00:18;;;;;;;6.13;5.53;;;;;;;16.30;56.40;99725.19;4919348;29;20051;-77
2021/11/28 04:02:44;;;;;;;5.97;5.47;;;;;;;16.31;56.55;99724.28;4934981;29;20118;-78
2021/11/28 04:05:10;;;;;;;6.30;5.70;;;;;;;16.30;56.27;99728.63;4919204;29;20122;-78
2021/11/28 04:07:36;;;;;;;6.32;5.60;;;;;;;16.31;56.47;99726.88;4903449;29;20035;-79
2021/11/28 04:10:04;;;;;;;6.55;5.57;;;;;;;16.30;56.03;99730.38;4904136;29;20371;-80
2021/11/28 04:12:30;;;;;;;6.43;5.50;;;;;;;16.31;55.81;99734.66;4938608;29;20467;-78
2021/11/28 04:14:57;;;;;;;6.32;5.72;;;;;;;16.30;55.89;99725.19;4907919;29;20138;-78
2021/11/28 04:17:24;;;;;;;6.63;5.75;;;;;;;16.29;56.02;99726.94;4940003;29;20082;-79
2021/11/28 04:19:50;;;;;;;5.95;5.40;;;;;;;16.30;56.32;99732.97;4937825;29;20030;-79
2021/11/28 04:22:16;;;;;;;5.63;5.10;;;;;;;16.29;56.20;99731.25;4920432;29;20390;-80
2021/11/28 04:24:41;;;;;;;5.95;5.43;;;;;;;16.29;56.09;99736.44;4921055;29;20027;-79
2021/11/28 04:27:07;;;;;;;6.00;5.40;;;;;;;16.29;56.20;99733.84;4937430;29;20031;-79
2021/11/28 04:29:32;;;;;;;5.95;5.35;;;;;;;16.27;55.91;99727.84;4889707;29;20083;-79
2021/11/28 04:31:58;;;;;;;6.72;5.32;;;;;;;16.28;56.35;99734.75;4904338;29;20030;-81
2021/11/28 04:34:24;;;;;;;5.95;5.35;;;;;;;16.28;56.02;99740.78;4888825;29;20024;-78
2021/11/28 04:36:50;;;;;;;5.57;5.00;;;;;;;16.28;55.67;99745.13;4914601;29;20048;-79
2021/11/28 04:39:15;;;;;;;6.13;5.53;;;;;;;16.28;55.91;99740.78;4919241;29;20047;-78
2021/11/28 04:41:41;;;;;;;6.10;5.50;;;;;;;16.28;55.96;99740.78;4919200;29;20028;-80
2021/11/28 04:44:07;;;;;;;5.88;5.25;;;;;;;16.27;55.87;99733.06;4904109;29;20130;-78
2021/11/28 04:46:32;;;;;;;5.93;5.30;;;;;;;16.28;55.81;99745.97;4934982;29;20054;-78
2021/11/28 04:48:59;;;;;;;5.70;5.10;;;;;;;16.28;55.88;99738.19;4919041;29;20103;-78
2021/11/28 04:51:24;;;;;;;5.90;5.30;;;;;;;16.28;55.78;99742.53;4950762;29;20024;-78
2021/11/28 04:53:50;;;;;;;6.15;5.55;;;;;;;16.27;55.68;99746.88;4934745;29;20024;-78
2021/11/28 04:56:15;;;;;;;6.00;5.40;;;;;;;16.28;55.37;99742.53;4919155;29;20478;-78
2021/11/28 04:58:41;;;;;;;6.63;5.15;;;;;;;16.28;55.49;99750.31;4905035;29;20546;-77
2021/11/28 05:01:06;;;;;;;6.03;5.43;;;;;;;16.27;55.38;99752.06;4939833;29;20102;-77
2021/11/28 05:03:32;;;;;;;5.50;5.00;;;;;;;16.27;55.51;99756.41;4938387;29;20043;-78
2021/11/28 05:05:57;;;;;;;5.80;5.20;;;;;;;16.26;55.45;99755.53;4938360;29;20036;-78
2021/11/28 05:08:23;;;;;;;5.80;5.30;;;;;;;16.27;55.47;99753.81;4923160;29;20126;-78
2021/11/28 05:10:48;;;;;;;5.60;5.10;;;;;;;16.26;55.36;99750.34;4938187;29;20115;-78
2021/11/28 05:13:14;;;;;;;5.78;5.18;;;;;;;16.25;55.20;99751.25;4906453;29;20095;-78
2021/11/28 05:15:39;;;;;;;5.82;5.22;;;;;;;16.25;55.54;99746.91;4937969;29;20027;-78
2021/11/28 05:18:04;;;;;;;5.72;5.13;;;;;;;16.26;55.55;99758.13;4906453;29;20032;-78
2021/11/28 05:20:30;;;;;;;5.30;4.80;;;;;;;16.26;55.67;99758.13;4922041;29;20032;-79
2021/11/28 05:22:55;;;;;;;5.65;5.10;;;;;;;16.25;55.48;99762.47;4922129;29;20062;-78
2021/11/28 05:25:21;;;;;;;5.72;5.22;;;;;;;16.24;55.77;99760.78;4906250;29;20466;-79
2021/11/28 05:27:47;;;;;;;5.53;5.03;;;;;;;16.24;55.30;99763.38;4937856;29;20032;-78
2021/11/28 05:30:14;;;;;;;5.95;5.38;;;;;;;16.25;55.34;99772.84;4922242;29;20048;-78
2021/11/28 05:32:39;;;;;;;5.50;5.00;;;;;;;16.25;55.21;99769.41;4937926;29;20022;-78
2021/11/28 05:35:05;;;;;;;5.55;4.72;;;;;;;16.24;55.62;99775.47;4906321;29;20027;-79
2021/11/28 05:37:31;;;;;;;5.63;4.82;;;;;;;16.24;55.04;99772.88;4937555;29;20150;-80
2021/11/28 05:39:56;;;;;;;6.05;5.45;;;;;;;16.24;55.53;99772.88;4937832;29;20431;-81
2021/11/28 05:42:22;;;;;;;5.50;5.00;;;;;;;16.23;55.31;99773.78;4937682;29;20040;-80
2021/11/28 05:44:47;;;;;;;5.50;5.00;;;;;;;16.23;55.25;99777.22;4922071;29;20490;-78
2021/11/28 05:47:13;;;;;;;5.30;4.80;;;;;;;16.22;55.05;99767.75;4921845;29;20119;-79
2021/11/28 05:49:39;;;;;;;5.32;4.82;;;;;;;16.22;55.29;99774.66;4921737;29;20114;-79
2021/11/28 05:52:04;;;;;;;6.45;5.03;;;;;;;16.23;55.16;99776.38;4921677;29;20370;-81
2021/11/28 05:54:30;;;;;;;5.45;4.82;;;;;;;16.22;55.13;99772.94;4921520;29;20040;-78
2021/11/28 05:56:55;;;;;;;5.47;4.97;;;;;;;16.23;55.16;99781.56;4921692;29;20553;-78
2021/11/28 05:59:21;;;;;;;5.68;5.13;;;;;;;16.22;55.08;99783.31;4921661;29;20478;-81
2021/11/28 06:01:46;;;;;;;5.20;4.70;;;;;;;16.23;55.17;99789.34;4905888;29;20038;-77
2021/11/28 06:04:12;;;;;;;5.28;4.78;;;;;;;16.21;55.02;99794.56;4921358;29;20049;-77
2021/11/28 06:06:37;;;;;;;5.65;5.10;;;;;;;16.22;55.21;99792.81;4921574;29;20039;-77
2021/11/28 06:09:03;;;;;;;5.30;4.80;;;;;;;16.22;55.18;99795.41;4938579;29;20039;-78
2021/11/28 06:11:28;;;;;;;5.00;4.50;;;;;;;16.21;55.14;99794.56;4905731;29;20078;-79
2021/11/28 06:13:54;;;;;;;4.45;4.05;;;;;;;16.21;55.06;99788.53;4905295;29;20371;-78
2021/11/28 06:16:19;;;;;;;5.45;4.95;;;;;;;16.22;54.90;99795.41;4905400;29;20066;-78
2021/11/28 06:18:45;;;;;;;4.97;4.47;;;;;;;16.22;54.68;99795.41;4936777;29;20497;-78
2021/11/28 06:21:11;;;;;;;5.10;4.60;;;;;;;16.21;54.83;99793.72;4921248;29;20028;-78
2021/11/28 06:23:36;;;;;;;5.20;4.70;;;;;;;16.20;54.92;99800.66;4936833;29;20023;-79
2021/11/28 06:26:02;;;;;;;5.30;4.80;;;;;;;16.20;54.72;99795.47;4920989;29;20090;-78
2021/11/28 06:28:28;;;;;;;5.30;4.57;;;;;;;16.21;54.85;99802.34;4905416;29;20032;-78
2021/11/28 06:30:53;;;;;;;4.60;4.20;;;;;;;16.21;54.82;99799.75;4905191;29;20047;-78
2021/11/28 06:33:18;;;;;;;4.90;4.50;;;;;;;16.21;54.68;99801.50;4936964;29;20111;-81
2021/11/28 06:35:44;;;;;;;4.78;4.28;;;;;;;16.22;55.02;99811.00;4920995;29;20502;-79
2021/11/28 06:38:10;;;;;;;5.03;4.53;;;;;;;16.21;54.53;99810.16;4938058;29;20471;-78
2021/11/28 06:40:35;;;;;;;4.85;4.25;;;;;;;16.21;54.90;99819.69;4921062;29;20038;-79
2021/11/28 06:43:01;;;;;;;5.30;4.80;;;;;;;16.21;54.60;99820.53;4936681;29;20079;-79
2021/11/28 06:45:26;;;;;;;4.43;4.03;;;;;;;16.21;54.76;99819.69;4920696;29;20471;-78
2021/11/28 06:47:53;;;;;;;4.65;4.25;;;;;;;16.21;54.60;99827.47;4920634;29;20122;-79
2021/11/28 06:50:18;;;;;;;4.72;4.20;;;;;;;16.21;54.87;99825.72;4936432;29;20135;-78
2021/11/28 06:52:44;;;;;;;4.57;4.18;;;;;;;16.20;54.45;99824.03;4936284;29;20035;-82
2021/11/28 06:55:10;;;;;;;4.60;4.20;;;;;;;16.21;54.45;99832.66;4936593;29;20031;-82
2021/11/28 06:57:35;;;;;;;4.68;4.15;;;;;;;16.21;54.70;99846.47;4904748;29;20038;-81
2021/11/28 07:00:02;;;;;;;4.25;3.85;;;;;;;16.21;54.50;99848.22;4904614;29;20035;-78
2021/11/28 07:02:27;;;;;;;3.95;3.65;;;;;;;16.21;54.36;99851.69;4920597;29;20035;-79
2021/11/28 07:04:52;;;;;;;4.50;4.10;;;;;;;16.21;54.90;99858.63;4937940;29;20500;-78
2021/11/28 07:07:18;;;;;;;4.50;4.10;;;;;;;16.20;54.48;99855.19;4936865;29;20036;-77
2021/11/28 07:09:43;;;;;;;4.47;4.07;;;;;;;16.21;54.20;99867.25;4905810;29;20032;-80
2021/11/28 07:12:09;;;;;;;4.50;3.75;;;;;;;16.21;54.49;99867.25;4905282;29;20546;-81
2021/11/28 07:14:34;;;;;;;4.72;4.00;;;;;;;16.20;54.52;99860.38;4936826;29;20031;-81
2021/11/28 07:17:00;;;;;;;4.40;4.00;;;;;;;16.21;54.75;99876.78;4920851;29;20023;-78
2021/11/28 07:19:25;;;;;;;8.45;3.85;;;;;;;16.21;54.27;99866.41;4920705;29;20390;-75
2021/11/28 07:21:50;;;;;;;6.65;3.75;;;;;;;16.29;53.44;99874.91;4935566;29;20506;-77
2021/11/28 07:24:16;;;;;;;4.03;3.63;;;;;;;16.39;53.18;99880.75;4904517;29;20031;-76
2021/11/28 07:26:42;;;;;;;14.40;3.88;;;;;;;16.44;53.52;99886.75;4920344;29;20064;-78
2021/11/28 07:29:07;;;;;;;4.13;3.72;;;;;;;16.48;53.68;99885.75;4935625;29;20055;-77
2021/11/28 07:31:33;;;;;;;4.78;3.60;;;;;;;16.50;53.78;99889.19;4904336;29;20023;-76
2021/11/28 07:33:58;;;;;;;6.05;3.83;;;;;;;16.53;53.45;99896.94;4919950;29;20368;-75
2021/11/28 07:36:24;;;;;;;4.18;3.55;;;;;;;16.56;53.53;99898.59;4935559;29;20050;-76
2021/11/28 07:38:49;;;;;;;5.43;3.75;;;;;;;16.58;53.73;99905.47;4904123;29;20035;-79
2021/11/28 07:41:15;;;;;;;3.67;3.38;;;;;;;16.59;53.66;99909.81;4903850;29;20087;-78
2021/11/28 07:43:40;;;;;;;3.80;3.40;;;;;;;16.61;53.73;99914.94;4935902;29;20044;-78
2021/11/28 07:46:06;;;;;;;3.97;3.53;;;;;;;16.63;53.78;99910.56;4935528;29;20083;-79
2021/11/28 07:48:31;;;;;;;3.70;3.20;;;;;;;16.63;53.97;99913.19;4919541;29;20478;-79
2021/11/28 07:50:58;;;;;;;3.42;3.08;;;;;;;16.62;53.84;99909.72;4935476;29;20114;-77
2021/11/28 07:53:25;;;;;;;3.90;3.13;;;;;;;16.63;53.77;99905.38;4935371;29;20027;-78
2021/11/28 07:55:50;;;;;;;3.53;3.00;;;;;;;16.63;53.57;99910.56;4935587;29;20031;-78
2021/11/28 07:58:16;;;;;;;3.70;2.80;;;;;;;16.64;53.96;99913.16;4935226;29;20024;-76
2021/11/28 08:00:41;;;;;;;3.85;2.90;;;;;;;16.65;53.60;99922.63;4903702;29;20028;-77
2021/11/28 08:03:07;;;;;;;3.15;2.85;;;;;;;16.66;53.75;99932.16;4935046;29;20035;-76
2021/11/28 08:05:32;;;;;;;3.15;2.75;;;;;;;16.68;53.55;99945.13;4935802;29;20031;-75
2021/11/28 08:07:58;;;;;;;3.30;2.90;;;;;;;16.67;53.57;99949.44;4903683;29;20023;-76
2021/11/28 08:10:24;;;;;;;3.08;2.78;;;;;;;16.67;53.99;99959.84;4903854;29;20035;-75
2021/11/28 08:12:49;;;;;;;4.63;2.85;;;;;;;16.69;53.85;99964.16;4919215;29;20095;-75
2021/11/28 08:15:19;;;;;;;2.83;2.53;;;;;;;16.70;53.76;99971.06;4903587;29;20043;-78
2021/11/28 08:17:45;;;;;;;3.00;2.70;;;;;;;16.71;54.02;99967.59;4936750;29;20024;-76
2021/11/28 08:20:12;;;;;;;7.43;3.88;;;;;;;16.78;53.75;99969.16;4935137;29;20028;-74
2021/11/28 08:22:38;;;;;;;3.60;2.65;;;;;;;16.87;53.69;99979.41;4934935;29;20024;-76
2021/11/28 08:25:06;;;;;;;7.22;2.40;;;;;;;16.92;53.46;99977.59;4935413;29;20032;-77
2021/11/28 08:27:32;;;;;;;3.13;2.10;;;;;;;16.90;53.53;99987.16;4934777;29;20024;-85
2021/11/28 08:30:00;;;;;;;4.32;2.17;;;;;;;16.85;53.57;99982.06;4919135;29;20095;-84
2021/11/28 08:32:26;;;;;;;3.17;2.30;;;;;;;16.90;53.47;99987.16;4919550;29;20112;-83
2021/11/28 08:34:51;;;;;;;4.90;2.33;;;;;;;16.95;53.42;99985.31;4940650;29;20028;-83
2021/11/28 08:37:17;;;;;;;4.55;2.30;;;;;;;16.93;53.98;100000.06;4923681;29;20147;-82
2021/11/28 08:39:44;;;;;;;3.38;2.22;;;;;;;16.98;55.64;100005.19;4907827;29;20114;-78
2021/11/28 08:42:09;;;;;;;5.47;2.20;;;;;;;16.89;57.79;100006.22;4923250;29;20046;-82
2021/11/28 08:44:36;;;;;;;3.25;2.28;;;;;;;16.87;56.78;100010.59;4938825;29;20393;-84
2021/11/28 08:47:02;;;;;;;6.20;2.50;;;;;;;16.78;56.25;100010.75;4891805;29;20042;-76
2021/11/28 08:49:28;;;;;;;7.72;2.22;;;;;;;16.70;56.14;100012.63;4939254;29;20023;-83
2021/11/28 08:51:53;;;;;;;4.45;2.10;;;;;;;16.61;56.36;100009.34;4907464;29;20028;-78
2021/11/28 08:54:19;;;;;;;4.90;1.92;;;;;;;16.56;56.46;100021.53;4939056;29;20058;-79
2021/11/28 08:56:50;;;;;;;12.30;2.78;;;;;;;16.53;56.35;100024.19;4922861;29;20031;-78
2021/11/28 08:59:20;;;;;;;8.60;2.35;;;;;;;16.49;56.69;100022.53;4908964;29;20028;-81
2021/11/28 09:01:45;;;;;;;4.75;2.00;;;;;;;16.49;56.53;100027.72;4923210;29;20032;-79
2021/11/28 09:04:11;;;;;;;3.22;2.20;;;;;;;16.48;56.44;100030.34;4922481;29;20062;-80
2021/11/28 09:06:39;;;;;;;4.75;1.85;;;;;;;16.47;56.35;100028.66;4922749;29;20028;-79
2021/11/28 09:09:04;;;;;;;4.40;1.88;;;;;;;16.47;56.67;100033.84;4906904;29;20398;-79
2021/11/28 09:11:30;;;;;;;3.03;2.00;;;;;;;16.43;56.85;100043.41;4922552;29;20031;-79
2021/11/28 09:13:56;;;;;;;4.60;1.90;;;;;;;16.43;57.08;100040.81;4938280;29;20028;-83
2021/11/28 09:16:22;;;;;;;3.50;1.80;;;;;;;16.45;56.80;100041.66;4921570;29;20043;-83
2021/11/28 09:18:55;;;;;;;3.53;2.00;;;;;;;16.47;56.73;100044.22;4922921;29;20123;-78
2021/11/28 09:21:21;;;;;;;3.80;1.75;;;;;;;16.43;57.04;100041.66;4938335;29;20505;-79
2021/11/28 09:26:32;;;;;;;2.28;1.80;;;;;;;16.45;56.92;100029.50;4939681;29;20066;-79
2021/11/28 09:29:00;;;;;;;3.95;1.70;;;;;;;16.47;56.77;100023.44;4938123;29;20031;-79
2021/11/28 09:31:27;;;;;;;4.22;1.52;;;;;;;16.44;57.11;100017.44;4938021;29;20019;-78
2021/11/28 09:33:52;;;;;;;4.20;1.70;;;;;;;16.45;56.78;99997.50;4938514;29;20031;-79
2021/11/28 09:36:18;;;;;;;4.90;1.48;;;;;;;16.44;57.06;99988.88;4922439;29;20052;-81
2021/11/28 09:38:46;;;;;;;3.63;1.67;;;;;;;16.44;57.08;99972.44;4954210;29;20043;-80
2021/11/28 09:41:12;;;;;;;3.65;1.55;;;;;;;16.45;56.92;99998.34;4922320;29;20130;-83
2021/11/28 09:43:43;;;;;;;2.53;1.58;;;;;;;16.45;57.10;100000.94;4937858;29;20059;-77
2021/11/28 09:46:10;;;;;;;2.28;1.48;;;;;;;16.47;57.01;100007.88;4937963;29;20091;-77
2021/11/28 09:48:36;;;;;;;3.05;1.40;;;;;;;16.47;56.96;100013.91;4939146;29;20489;-83
2021/11/28 09:51:03;;;;;;;3.45;1.38;;;;;;;16.48;56.79;100006.97;4921819;29;20042;-78
2021/11/28 09:53:31;;;;;;;3.53;1.35;;;;;;;16.49;56.79;100022.53;4921846;29;20034;-80
2021/11/28 09:56:00;;;;;;;2.13;1.35;;;;;;;16.50;57.03;100011.25;4939600;29;20118;-80
2021/11/28 09:58:27;;;;;;;1.58;1.40;;;;;;;16.50;56.92;100029.44;4924280;29;20091;-81
2021/11/28 10:00:53;;;;;;;2.50;1.40;;;;;;;16.53;57.05;100019.00;4924180;29;20032;-82
2021/11/28 10:03:19;;;;;;;5.93;1.45;;;;;;;16.58;58.18;100011.97;4939498;29;20032;-83
2021/11/28 10:05:45;;;;;;;6.82;1.58;;;;;;;16.83;59.03;100016.72;4922267;29;20038;-80
2021/11/28 10:08:13;;;;;;;5.43;1.58;;;;;;;16.78;58.03;100014.19;4937845;29;20035;-82
2021/11/28 10:10:39;;;;;;;3.88;1.38;;;;;;;16.73;57.96;100016.03;4922664;29;20036;-88
2021/11/28 10:13:05;;;;;;;1.95;1.05;;;;;;;16.69;57.91;100019.56;4939526;29;20058;-85
2021/11/28 10:15:30;;;;;;;3.28;1.60;;;;;;;16.68;57.39;100017.88;4923081;29;20028;-82
2021/11/28 10:17:59;;;;;;;1.80;1.17;;;;;;;16.67;57.50;100023.94;4937747;29;20066;-86
2021/11/28 10:20:27;;;;;;;2.22;1.20;;;;;;;16.64;57.78;100022.25;4937499;29;20024;-85
2021/11/28 10:22:55;;;;;;;1.73;1.17;;;;;;;16.63;57.86;100020.53;4937389;29;20105;-82
2021/11/28 10:25:24;;;;;;;3.50;1.10;;;;;;;16.62;58.25;100021.44;4921172;29;20471;-84
2021/11/28 10:28:11;;;;;;;1.92;1.20;;;;;;;16.63;58.04;100019.69;4953126;29;20059;-81
2021/11/28 10:30:40;;;;;;;4.93;1.55;;;;;;;16.60;58.02;100019.75;4925004;29;20091;-81
2021/11/28 10:33:18;;;;;;;3.20;1.10;;;;;;;16.62;58.21;100023.19;4936838;29;20024;-79
2021/11/28 10:36:08;;;;;;;2.65;0.90;;;;;;;16.63;58.10;100030.06;4937827;29;20032;-80
2021/11/28 10:38:36;;;;;;;2.10;1.10;;;;;;;16.61;58.21;100022.31;4921081;29;20363;-81
2021/11/28 10:41:24;;;;;;;2.45;1.10;;;;;;;16.62;58.30;100015.38;4936713;29;20028;-83
2021/11/28 10:43:50;;;;;;;2.50;1.10;;;;;;;16.60;58.42;100015.41;4920998;29;20027;-81
2021/11/28 10:46:28;;;;;;;1.77;1.13;;;;;;;16.61;58.34;100026.63;4920589;29;20032;-82
2021/11/28 10:49:17;;;;;;;2.35;0.95;;;;;;;16.60;58.37;100030.13;4920926;29;20028;-83
2021/11/28 10:51:48;;;;;;;1.42;0.93;;;;;;;16.60;58.29;100040.53;4936384;29;20034;-78
2021/11/28 10:54:45;;;;;;;1.30;0.90;;;;;;;16.59;58.47;100042.28;4937841;29;20027;-80
2021/11/28 10:57:14;;;;;;;2.22;1.05;;;;;;;16.60;58.27;100024.94;4889264;29;20490;-78
2021/11/28 10:59:42;;;;;;;4.03;1.00;;;;;;;16.60;58.23;100035.34;4936552;29;20106;-79
2021/11/28 11:02:27;;;;;;;1.48;1.05;;;;;;;16.58;58.34;100017.16;4920519;29;20031;-81
2021/11/28 11:04:55;;;;;;;2.10;0.88;;;;;;;16.59;58.24;100013.69;4937759;29;20035;-78
2021/11/28 11:07:22;;;;;;;0.93;0.77;;;;;;;16.59;58.44;99998.13;4905052;29;20175;-78
2021/11/28 11:09:49;;;;;;;1.60;0.95;;;;;;;16.60;58.21;99996.38;4920855;29;20028;-80
2021/11/28 11:12:32;;;;;;;2.38;0.90;;;;;;;16.62;58.67;100002.41;4904899;29;20024;-79
2021/11/28 11:14:59;;;;;;;1.58;0.98;;;;;;;16.61;58.32;99996.34;4905278;29;20118;-82
2021/11/28 11:17:28;;;;;;;2.65;0.90;;;;;;;16.62;58.37;99998.03;4904580;29;20031;-79
2021/11/28 11:19:55;;;;;;;2.17;0.95;;;;;;;16.62;58.33;99998.03;4936177;29;20027;-78
2021/11/28 11:22:30;;;;;;;2.95;0.90;;;;;;;16.64;58.30;99998.88;4920191;29;20478;-78
2021/11/28 11:25:01;;;;;;;1.70;0.80;;;;;;;16.65;58.83;100003.16;4937245;29;20031;-80
2021/11/28 11:27:34;;;;;;;1.75;0.70;;;;;;;16.65;58.54;100000.56;4920083;29;20066;-78
2021/11/28 11:30:03;;;;;;;1.85;0.90;;;;;;;16.66;58.05;100004.91;4920073;29;20034;-80
2021/11/28 11:32:54;;;;;;;2.25;0.90;;;;;;;16.67;58.37;99995.34;4935732;29;20055;-77
2021/11/28 11:35:29;;;;;;;2.05;0.80;;;;;;;16.68;58.20;99991.88;4919854;29;20055;-78
2021/11/28 11:38:03;;;;;;;1.65;0.80;;;;;;;16.70;58.11;99997.91;4919517;29;20062;-78
2021/11/28 11:40:30;;;;;;;1.13;0.80;;;;;;;16.71;58.08;99989.22;4936917;29;20035;-80